Time;durP1;ratioP1;P1;durP2;ratioP2;P2;SDS_P1;SDS_P2;PMS_P1;PMS_P2;Temp;Humidity;BMP_temperature;BMP_pressure;BME280_temperature;BME280_humidity;BME280_pressure;Samples;Min_cycle;Max_cycle;Signal;HPM_P1;HPM_P2
2023/06/13 00:01:37;;;;;;;5.37;1.43;;;;;;;16.00;59.59;101201.06;5033005;28;20998;-68
2023/06/13 00:04:04;;;;;;;6.67;2.00;;;;;;;15.92;59.78;101194.47;5033183;28;20467;-67
2023/06/13 00:06:34;;;;;;;6.20;1.93;;;;;;;15.94;59.99;101191.41;5033363;28;20478;-68
2023/06/13 00:09:02;;;;;;;6.77;1.73;;;;;;;15.91;59.51;101192.88;5032939;28;20435;-67
2023/06/13 00:11:28;;;;;;;6.10;1.80;;;;;;;15.83;60.06;101186.28;5033081;28;21006;-68
2023/06/13 00:13:55;;;;;;;6.17;1.77;;;;;;;15.82;60.05;101184.69;5033283;28;20546;-67
2023/06/13 00:16:25;;;;;;;6.70;2.00;;;;;;;15.87;60.17;101187.25;5032934;28;20950;-67
2023/06/13 00:18:56;;;;;;;10.83;2.07;;;;;;;15.89;60.29;101187.75;5032785;28;20577;-67
2023/06/13 00:21:23;;;;;;;6.97;2.20;;;;;;;15.91;60.54;101184.69;5032798;28;20442;-68
2023/06/13 00:23:50;;;;;;;6.53;1.73;;;;;;;15.86;61.00;101185.66;5034668;28;20501;-67
2023/06/13 00:26:16;;;;;;;6.87;2.30;;;;;;;15.80;61.19;101186.91;5036820;28;20489;-67
2023/06/13 00:28:43;;;;;;;7.00;2.03;;;;;;;15.61;61.00;101183.69;5036655;28;20446;-67
2023/06/13 00:31:10;;;;;;;6.10;1.60;;;;;;;15.55;61.69;101174.84;5037137;28;20501;-66
2023/06/13 00:33:38;;;;;;;6.30;2.13;;;;;;;15.55;61.19;101169.38;5036817;28;20504;-67
2023/06/13 00:36:07;;;;;;;6.70;1.87;;;;;;;15.44;61.53;101159.88;5036876;28;20443;-68
2023/06/13 00:38:33;;;;;;;10.77;2.20;;;;;;;15.46;61.76;101165.03;5036668;28;20487;-67
2023/06/13 00:41:00;;;;;;;6.60;1.70;;;;;;;15.41;61.63;101166.00;5036781;28;20443;-67
2023/06/13 00:43:27;;;;;;;6.67;1.90;;;;;;;15.44;62.54;101159.09;5036382;28;20956;-67
2023/06/13 00:45:54;;;;;;;8.90;1.90;;;;;;;15.39;62.20;101163.56;5036621;28;20516;-67
2023/06/13 00:48:22;;;;;;;6.27;1.83;;;;;;;15.38;62.42;101169.38;5036611;28;20478;-67
2023/06/13 00:50:48;;;;;;;7.00;2.47;;;;;;;15.46;62.44;101168.56;5036600;28;20474;-67
2023/06/13 00:53:17;;;;;;;5.73;1.90;;;;;;;15.40;62.86;101158.91;5036581;28;20508;-68
2023/06/13 00:55:45;;;;;;;6.10;1.90;;;;;;;15.36;62.19;101158.78;5036050;28;20478;-67
2023/06/13 00:58:13;;;;;;;5.27;1.27;;;;;;;15.30;61.17;101156.50;5036515;28;20491;-67
2023/06/13 01:00:43;;;;;;;5.00;1.53;;;;;;;15.33;61.27;101153.94;5036303;28;20952;-67
2023/06/13 01:03:15;;;;;;;6.20;1.57;;;;;;;15.37;60.87;101151.38;5036420;28;20449;-66
2023/06/13 01:05:42;;;;;;;5.43;1.83;;;;;;;15.29;62.03;101150.25;5036210;28;20830;-65
2023/06/13 01:08:11;;;;;;;5.70;1.80;;;;;;;15.29;61.60;101158.44;5036502;28;20438;-67
2023/06/13 01:10:41;;;;;;;6.33;2.00;;;;;;;15.25;62.30;101149.28;5036671;28;20477;-67
2023/06/13 01:13:13;;;;;;;6.40;2.30;;;;;;;15.23;62.65;101148.78;5036483;28;20965;-66
2023/06/13 01:15:46;;;;;;;6.07;1.90;;;;;;;15.23;62.31;101145.25;5036419;28;20471;-67
2023/06/13 01:18:15;;;;;;;6.13;1.73;;;;;;;15.16;62.60;101137.53;5036407;28;20988;-67
2023/06/13 01:20:45;;;;;;;6.00;1.77;;;;;;;15.07;63.39;101153.09;5037227;28;20546;-66
2023/06/13 01:23:25;;;;;;;6.30;1.90;;;;;;;15.05;63.18;101144.41;5036712;28;20455;-67
2023/06/13 01:26:04;;;;;;;6.60;1.70;;;;;;;15.13;63.09;101146.34;5036281;28;21041;-67
2023/06/13 01:28:35;;;;;;;6.43;1.90;;;;;;;15.22;62.85;101143.63;5036169;28;20431;-67
2023/06/13 01:31:03;;;;;;;10.30;1.87;;;;;;;15.17;63.10;101147.31;5036508;28;20431;-67
2023/06/13 01:33:31;;;;;;;6.30;2.10;;;;;;;15.17;63.53;101146.53;5035983;28;20461;-67
2023/06/13 01:35:58;;;;;;;6.10;2.10;;;;;;;15.15;63.91;101144.13;5035981;28;20447;-67
2023/06/13 01:38:25;;;;;;;5.57;2.13;;;;;;;15.12;64.21;101144.75;5036151;28;20573;-67
2023/06/13 01:40:52;;;;;;;7.30;2.43;;;;;;;15.16;63.83;101140.25;5035859;28;20878;-67
2023/06/13 01:43:19;;;;;;;16.00;2.60;;;;;;;15.18;63.93;101137.22;5035843;28;20451;-67
2023/06/13 01:45:48;;;;;;;6.63;1.80;;;;;;;15.11;64.31;101154.06;5035573;28;20475;-64
2023/06/13 01:48:22;;;;;;;5.90;2.03;;;;;;;15.07;64.19;101134.78;5035180;28;20490;-68
2023/06/13 01:50:55;;;;;;;6.07;1.83;;;;;;;15.15;63.77;101138.66;5035440;28;20424;-68
2023/06/13 01:53:30;;;;;;;6.60;1.90;;;;;;;15.18;64.87;101135.28;5035262;28;20490;-69
2023/06/13 01:56:00;;;;;;;7.20;2.30;;;;;;;15.17;64.92;101133.69;5034997;28;20459;-67
2023/06/13 01:58:32;;;;;;;7.73;2.33;;;;;;;15.14;66.00;101137.88;5041941;22;20581;-75
2023/06/13 02:01:03;;;;;;;6.23;2.10;;;;;;;15.19;66.61;101127.91;5035421;28;20463;-75
2023/06/13 02:03:31;;;;;;;22.97;2.03;;;;;;;15.15;66.89;101130.47;5035509;28;20442;-75
2023/06/13 02:05:58;;;;;;;7.60;2.07;;;;;;;15.14;67.61;101126.16;5043048;22;20506;-75
2023/06/13 02:08:25;;;;;;;7.53;1.93;;;;;;;15.13;66.61;101127.25;5035431;28;20466;-76
2023/06/13 02:10:51;;;;;;;6.20;2.03;;;;;;;15.17;67.29;101120.03;5034962;28;20447;-75
2023/06/13 02:13:18;;;;;;;6.87;2.40;;;;;;;15.10;67.52;101120.50;5034949;28;20440;-76
2023/06/13 02:15:45;;;;;;;8.80;2.00;;;;;;;15.10;67.28;101122.44;5034811;28;20884;-76
2023/06/13 02:18:13;;;;;;;7.03;1.80;;;;;;;15.19;67.01;101128.72;5035085;28;20495;-76
2023/06/13 02:20:39;;;;;;;6.30;2.03;;;;;;;15.11;67.31;101133.03;5035163;28;20453;-76
2023/06/13 02:23:06;;;;;;;8.97;2.30;;;;;;;15.13;66.64;101130.78;5035024;28;20538;-75
2023/06/13 02:25:33;;;;;;;5.63;1.97;;;;;;;15.09;67.34;101129.81;5034961;28;20879;-75
2023/06/13 02:27:59;;;;;;;13.90;2.30;;;;;;;15.03;67.10;101124.81;5034703;28;21031;-76
2023/06/13 02:30:26;;;;;;;8.60;2.30;;;;;;;15.04;67.06;101131.88;5034567;28;20927;-75
2023/06/13 02:32:53;;;;;;;5.97;1.77;;;;;;;15.01;66.99;101135.28;5034493;28;20470;-76
2023/06/13 02:35:23;;;;;;;6.93;2.03;;;;;;;15.02;67.06;101139.59;5034441;28;22161;-75
2023/06/13 02:37:53;;;;;;;7.27;2.20;;;;;;;14.95;67.11;101133.78;5034832;28;20506;-75
2023/06/13 02:40:19;;;;;;;5.80;2.17;;;;;;;14.93;66.77;101136.03;5034302;28;20534;-75
2023/06/13 02:42:48;;;;;;;6.10;2.33;;;;;;;14.96;67.00;101130.72;5034730;28;20542;-76
2023/06/13 02:45:15;;;;;;;5.20;1.50;;;;;;;14.87;67.60;101141.66;5034167;28;20886;-76
2023/06/13 02:47:42;;;;;;;7.07;2.40;;;;;;;14.74;68.05;101141.72;5033922;28;20523;-76
2023/06/13 02:50:09;;;;;;;8.00;2.27;;;;;;;14.68;68.66;101132.09;5034587;28;20485;-76
2023/06/13 02:52:38;;;;;;;6.53;1.83;;;;;;;14.66;68.62;101132.44;5034216;28;20983;-76
2023/06/13 02:55:08;;;;;;;6.57;2.10;;;;;;;14.62;68.83;101134.97;5034439;28;20439;-75
2023/06/13 02:57:34;;;;;;;8.20;2.30;;;;;;;14.59;69.41;101127.41;5034408;28;20447;-75
2023/06/13 03:00:01;;;;;;;7.30;2.53;;;;;;;14.56;69.55;101132.69;5034299;28;20553;-75
2023/06/13 03:02:28;;;;;;;6.07;1.97;;;;;;;14.61;69.49;101121.66;5034248;28;20455;-75
2023/06/13 03:04:55;;;;;;;6.20;2.10;;;;;;;14.49;70.20;101126.91;5034288;28;20438;-75
2023/06/13 03:07:23;;;;;;;7.27;2.00;;;;;;;14.39;70.38;101122.50;5034208;28;20880;-75
2023/06/13 03:09:51;;;;;;;7.23;2.43;;;;;;;14.23;71.58;101124.00;5033887;28;20439;-75
2023/06/13 03:12:18;;;;;;;9.23;2.77;;;;;;;14.32;70.79;101127.56;5033815;28;20879;-75
2023/06/13 03:14:45;;;;;;;13.17;2.80;;;;;;;14.33;71.30;101118.28;5034085;28;20443;-75
2023/06/13 03:17:11;;;;;;;7.30;2.70;;;;;;;14.27;71.01;101114.88;5034072;28;20532;-75
2023/06/13 03:19:38;;;;;;;6.77;2.50;;;;;;;14.22;71.29;101125.94;5033732;28;20515;-75
2023/06/13 03:22:06;;;;;;;7.23;2.37;;;;;;;14.14;71.53;101126.69;5033938;28;20447;-75
2023/06/13 03:24:35;;;;;;;8.47;2.90;;;;;;;14.19;71.54;101120.28;5034121;28;20497;-75
2023/06/13 03:27:04;;;;;;;6.20;2.43;;;;;;;14.17;71.74;101119.81;5033811;28;20471;-75
2023/06/13 03:29:30;;;;;;;7.70;3.20;;;;;;;14.11;72.45;101116.38;5033784;28;20423;-76
2023/06/13 03:31:57;;;;;;;7.63;2.67;;;;;;;14.12;72.24;101112.53;5033755;28;20450;-76
2023/06/13 03:34:26;;;;;;;8.90;2.77;;;;;;;14.23;70.96;101107.66;5033603;28;20440;-76
2023/06/13 03:36:52;;;;;;;7.73;2.60;;;;;;;14.27;70.68;101114.88;5033679;28;20466;-75
2023/06/13 03:39:19;;;;;;;7.63;3.03;;;;;;;14.16;71.67;101116.25;5033312;28;20522;-75
2023/06/13 03:41:46;;;;;;;8.67;3.40;;;;;;;14.16;71.00;101116.25;5033636;28;20537;-75
2023/06/13 03:44:14;;;;;;;8.50;3.00;;;;;;;14.13;70.52;101112.25;5033656;28;20447;-76
2023/06/13 03:46:40;;;;;;;7.13;2.97;;;;;;;14.07;69.80;101112.69;5033362;28;20554;-76
2023/06/13 03:49:07;;;;;;;7.20;2.73;;;;;;;14.07;70.66;101115.41;5033576;28;20449;-75
2023/06/13 03:51:34;;;;;;;8.37;2.30;;;;;;;14.00;72.96;101117.78;5033241;28;20821;-75
2023/06/13 03:54:01;;;;;;;7.27;3.00;;;;;;;14.00;74.12;101120.50;5033441;28;20451;-75
2023/06/13 03:56:28;;;;;;;8.97;3.40;;;;;;;13.98;74.65;101112.63;5033429;28;20478;-75
2023/06/13 03:58:54;;;;;;;15.40;3.10;;;;;;;14.04;74.93;101105.16;5033211;28;20509;-75
2023/06/13 04:01:24;;;;;;;7.33;2.97;;;;;;;14.05;75.73;101114.94;5033441;28;20536;-75
2023/06/13 04:03:51;;;;;;;7.87;2.83;;;;;;;14.26;74.11;101104.31;5033479;28;20443;-75
2023/06/13 04:06:17;;;;;;;7.90;2.83;;;;;;;14.37;73.58;101105.63;5033087;28;20911;-75
2023/06/13 04:08:44;;;;;;;10.13;3.00;;;;;;;14.39;73.29;101101.50;5033271;28;20874;-76
2023/06/13 04:11:11;;;;;;;8.57;3.73;;;;;;;14.45;73.61;101104.06;5033440;28;20478;-75
2023/06/13 04:13:37;;;;;;;7.27;2.73;;;;;;;14.52;72.59;101102.53;5033017;28;20959;-76
2023/06/13 04:16:04;;;;;;;9.00;3.37;;;;;;;14.49;72.93;101102.38;5033213;28;20467;-75
2023/06/13 04:18:36;;;;;;;10.43;3.17;;;;;;;14.46;73.39;101100.22;5032910;28;20801;-75
2023/06/13 04:21:03;;;;;;;10.90;2.43;;;;;;;14.45;72.92;101095.91;5032917;28;20435;-75
2023/06/13 04:23:30;;;;;;;7.20;2.83;;;;;;;14.28;73.98;101093.88;5033252;28;20443;-75
2023/06/13 04:26:00;;;;;;;13.30;2.97;;;;;;;14.28;74.66;101091.16;5032857;28;20529;-75
2023/06/13 04:28:27;;;;;;;6.90;2.50;;;;;;;14.29;75.27;101092.75;5032886;28;20451;-75
2023/06/13 04:30:54;;;;;;;6.40;2.40;;;;;;;14.36;74.76;101096.66;5033225;28;20435;-75
2023/06/13 04:33:21;;;;;;;8.20;3.10;;;;;;;14.50;75.26;101090.34;5032900;28;20440;-75
2023/06/13 04:35:49;;;;;;;13.30;3.10;;;;;;;14.41;75.19;101100.38;5033120;28;20546;-75
2023/06/13 04:38:20;;;;;;;7.27;2.73;;;;;;;14.42;77.42;101105.50;5032838;28;20482;-75
2023/06/13 04:40:46;;;;;;;8.43;3.27;;;;;;;14.46;78.98;101103.75;5032873;28;20474;-75
2023/06/13 04:43:14;;;;;;;7.90;3.53;;;;;;;14.57;79.61;101120.69;5032999;28;20475;-75
2023/06/13 04:45:42;;;;;;;7.80;3.17;;;;;;;14.62;81.19;101112.34;5032975;28;20745;-75
2023/06/13 04:48:09;;;;;;;7.70;2.90;;;;;;;14.69;79.51;101103.69;5032980;28;20451;-76
2023/06/13 04:50:37;;;;;;;9.00;3.07;;;;;;;14.73;81.13;101119.13;5033093;28;20447;-76
2023/06/13 04:53:07;;;;;;;11.10;3.00;;;;;;;14.87;81.72;101125.28;5032945;28;20447;-76
2023/06/13 04:55:37;;;;;;;8.20;3.10;;;;;;;14.86;82.84;101114.66;5032763;28;20463;-76
2023/06/13 04:58:03;;;;;;;8.40;2.80;;;;;;;15.02;82.65;101115.84;5032959;28;20462;-76
2023/06/13 05:00:30;;;;;;;9.33;2.10;;;;;;;15.08;82.15;101114.56;5032891;28;20482;-75
2023/06/13 05:03:00;;;;;;;7.23;2.60;;;;;;;15.16;80.95;101110.25;5032611;28;20518;-75
2023/06/13 05:05:27;;;;;;;6.47;2.63;;;;;;;15.27;80.12;101113.47;5032417;28;20537;-76
2023/06/13 05:07:55;;;;;;;10.00;2.53;;;;;;;15.41;79.65;101116.06;5032572;28;20963;-76
2023/06/13 05:10:24;;;;;;;6.10;2.03;;;;;;;15.55;79.21;101117.50;5034990;28;20439;-76
2023/06/13 05:12:51;;;;;;;6.47;2.20;;;;;;;15.62;78.13;101115.06;5036430;28;20485;-76
2023/06/13 05:15:19;;;;;;;5.87;2.17;;;;;;;15.71;77.81;101111.56;5036431;28;20489;-77
2023/06/13 05:17:48;;;;;;;5.57;1.83;;;;;;;15.79;78.12;101116.22;5036379;28;20447;-76
2023/06/13 05:20:14;;;;;;;6.47;2.33;;;;;;;15.91;77.78;101110.13;5035819;28;21094;-75
2023/06/13 05:22:41;;;;;;;7.60;2.40;;;;;;;16.00;75.48;101113.63;5035676;28;20482;-75
2023/06/13 05:25:09;;;;;;;6.40;2.63;;;;;;;16.06;74.59;101107.66;5036039;28;20856;-76
2023/06/13 05:27:37;;;;;;;7.90;2.60;;;;;;;16.21;75.47;101109.09;5036232;28;20475;-76
2023/06/13 05:30:05;;;;;;;6.83;2.57;;;;;;;16.33;74.79;101111.91;5036086;28;20877;-76
2023/06/13 05:32:31;;;;;;;6.97;2.30;;;;;;;16.42;72.82;101103.69;5036096;28;20482;-76
2023/06/13 05:34:58;;;;;;;7.43;2.50;;;;;;;16.48;74.45;101105.13;5035658;28;20451;-76
2023/06/13 05:37:24;;;;;;;6.50;2.20;;;;;;;16.49;69.88;101122.34;5035928;28;20509;-76
2023/06/13 05:39:51;;;;;;;6.60;2.50;;;;;;;16.67;72.10;101117.59;5035836;28;20487;-76
2023/06/13 05:42:18;;;;;;;15.50;3.80;;;;;;;16.75;72.99;101111.31;5035880;28;20801;-76
2023/06/13 05:44:46;;;;;;;10.60;2.90;;;;;;;16.81;73.35;101112.72;5035480;28;20539;-76
2023/06/13 05:47:12;;;;;;;7.23;2.63;;;;;;;16.95;73.37;101105.06;5035671;28;20463;-76
2023/06/13 05:49:39;;;;;;;7.57;3.03;;;;;;;16.95;71.97;101091.38;5035673;28;20431;-76
2023/06/13 05:52:07;;;;;;;6.77;2.60;;;;;;;17.03;71.50;101096.00;5035478;28;20948;-76
2023/06/13 05:54:35;;;;;;;6.30;2.20;;;;;;;17.02;66.39;101099.09;5035532;28;20444;-75
2023/06/13 05:57:01;;;;;;;6.53;2.43;;;;;;;17.07;66.83;101098.88;5035216;28;20475;-76
2023/06/13 05:59:28;;;;;;;7.13;2.10;;;;;;;17.19;67.24;101098.19;5035429;28;20577;-76
2023/06/13 06:01:56;;;;;;;11.63;3.30;;;;;;;17.35;67.94;101100.00;5035258;28;20447;-76
2023/06/13 06:04:25;;;;;;;6.63;2.30;;;;;;;17.52;67.92;101103.72;5035421;28;20443;-75
2023/06/13 06:06:52;;;;;;;7.63;2.40;;;;;;;17.57;65.97;101108.97;5034913;28;20479;-75
2023/06/13 06:09:19;;;;;;;8.00;2.77;;;;;;;17.65;65.31;101105.38;5035230;28;20447;-74
2023/06/13 06:11:46;;;;;;;7.10;2.20;;;;;;;17.76;65.32;101103.84;5035305;28;20490;-75
2023/06/13 06:14:12;;;;;;;8.50;2.80;;;;;;;17.86;64.90;101097.94;5035283;28;20637;-76
2023/06/13 06:16:39;;;;;;;7.47;2.60;;;;;;;17.95;65.53;101097.84;5034993;28;20482;-76
2023/06/13 06:19:07;;;;;;;10.43;2.77;;;;;;;18.03;63.41;101104.41;5035099;28;20451;-75
2023/06/13 06:21:34;;;;;;;6.27;2.27;;;;;;;18.18;63.59;101116.66;5034956;28;20538;-76
2023/06/13 06:24:01;;;;;;;11.53;2.60;;;;;;;18.29;63.71;101113.16;5034993;28;20526;-76
2023/06/13 06:26:28;;;;;;;6.57;2.40;;;;;;;18.41;61.97;101101.38;5035082;28;20529;-75
2023/06/13 06:28:55;;;;;;;5.20;1.63;;;;;;;18.51;60.74;101113.88;5034828;28;20431;-75
2023/06/13 06:31:22;;;;;;;8.57;2.40;;;;;;;18.63;59.33;101122.88;5034798;28;20475;-77
2023/06/13 06:33:48;;;;;;;6.37;2.47;;;;;;;18.77;55.62;101100.63;5034901;28;20550;-75
2023/06/13 06:36:16;;;;;;;9.40;2.63;;;;;;;18.86;54.13;101101.31;5034216;28;20998;-75
2023/06/13 06:38:43;;;;;;;7.40;2.87;;;;;;;18.90;54.32;101112.38;5034707;28;20443;-74
2023/06/13 06:41:10;;;;;;;6.53;2.10;;;;;;;18.94;54.17;101115.25;5034501;28;20613;-74
2023/06/13 06:43:37;;;;;;;7.07;2.07;;;;;;;18.95;53.99;101103.94;5034211;28;20924;-74
2023/06/13 06:46:04;;;;;;;7.10;2.37;;;;;;;18.96;54.00;101115.72;5034140;28;20893;-74
2023/06/13 06:48:30;;;;;;;13.30;2.80;;;;;;;18.98;54.87;101108.72;5034668;28;20474;-74
2023/06/13 06:50:57;;;;;;;7.73;2.57;;;;;;;18.98;53.88;101114.22;5035011;28;20518;-74
2023/06/13 06:53:25;;;;;;;7.20;3.00;;;;;;;18.98;53.67;101111.47;5034310;28;20463;-74
2023/06/13 06:55:52;;;;;;;15.43;2.57;;;;;;;19.06;53.86;101110.53;5034382;28;20493;-74
2023/06/13 06:58:18;;;;;;;10.80;3.47;;;;;;;19.09;54.65;101096.13;5034093;28;20539;-74
2023/06/13 07:00:46;;;;;;;8.13;2.77;;;;;;;19.18;55.30;101097.94;5034020;28;20561;-74
2023/06/13 07:03:12;;;;;;;6.60;2.30;;;;;;;19.22;55.87;101085.91;5034506;28;20486;-74
2023/06/13 07:05:39;;;;;;;9.63;2.20;;;;;;;19.31;56.64;101089.31;5033952;28;20562;-74
2023/06/13 07:08:06;;;;;;;11.33;2.90;;;;;;;19.37;56.52;101090.69;5034088;28;20507;-74
2023/06/13 07:10:34;;;;;;;7.20;2.87;;;;;;;19.45;55.43;101090.91;5034175;28;20471;-73
2023/06/13 07:13:01;;;;;;;6.00;2.30;;;;;;;19.48;55.71;101090.19;5034014;28;20451;-74
2023/06/13 07:15:27;;;;;;;8.73;2.33;;;;;;;19.58;56.23;101095.19;5034262;28;20470;-74
2023/06/13 07:17:54;;;;;;;7.53;2.90;;;;;;;19.66;55.97;101094.28;5034701;28;20478;-74
2023/06/13 07:20:21;;;;;;;7.50;2.50;;;;;;;19.73;54.86;101080.72;5034103;28;20515;-74
2023/06/13 07:22:47;;;;;;;10.03;2.30;;;;;;;19.84;55.43;101084.56;5033670;28;20526;-74
2023/06/13 07:25:14;;;;;;;9.17;2.60;;;;;;;19.90;54.96;101085.09;5033833;28;20443;-75
2023/06/13 07:27:43;;;;;;;6.30;2.30;;;;;;;19.90;55.58;101085.09;5034070;28;20447;-74
2023/06/13 07:30:10;;;;;;;6.03;2.17;;;;;;;19.94;54.99;101090.72;5033999;28;20472;-74
2023/06/13 07:44:44;;;;;;;5.70;2.40;;;;;;;20.56;51.88;101089.97;5131477;27;20553;-68
2023/06/13 07:47:11;;;;;;;6.80;2.00;;;;;;;20.52;48.43;101089.06;5131545;27;20855;-69
2023/06/13 07:49:38;;;;;;;6.00;2.27;;;;;;;20.38;46.79;101091.47;5132857;27;20514;-70
2023/06/13 07:52:06;;;;;;;5.53;1.63;;;;;;;20.41;47.16;101094.31;5130977;27;20526;-70
2023/06/13 07:54:32;;;;;;;4.90;1.40;;;;;;;20.41;45.79;101094.31;5131286;27;20500;-71
2023/06/13 07:56:59;;;;;;;6.40;1.87;;;;;;;20.50;46.16;101091.41;5130981;27;20445;-68
2023/06/13 07:59:26;;;;;;;5.93;1.73;;;;;;;20.54;48.15;101095.03;5130894;27;20963;-69
2023/06/13 08:01:54;;;;;;;5.20;1.93;;;;;;;20.72;46.99;101100.16;5131201;27;20445;-69
2023/06/13 08:04:20;;;;;;;5.30;1.80;;;;;;;20.84;46.96;101089.81;5131126;27;20487;-69
2023/06/13 08:06:47;;;;;;;7.93;2.23;;;;;;;20.88;45.88;101090.72;5130697;27;20936;-69
2023/06/13 08:09:14;;;;;;;5.30;1.77;;;;;;;20.91;46.40;101095.50;5131059;27;20442;-69
2023/06/13 08:11:41;;;;;;;7.20;2.23;;;;;;;20.91;46.50;101087.25;5130719;27;20442;-69
2023/06/13 08:14:08;;;;;;;6.93;2.13;;;;;;;20.96;47.90;101086.16;5130824;27;20487;-69
2023/06/13 08:16:35;;;;;;;5.10;1.60;;;;;;;21.11;47.91;101084.53;5130923;27;20447;-70
2023/06/13 08:19:04;;;;;;;5.70;2.30;;;;;;;21.34;48.53;101084.66;5130905;27;20466;-69
2023/06/13 08:21:30;;;;;;;6.20;1.80;;;;;;;21.53;47.32;101089.38;5131032;27;20482;-70
2023/06/13 08:23:59;;;;;;;6.20;2.00;;;;;;;21.70;45.36;101090.91;5130723;27;20873;-69
2023/06/13 08:26:26;;;;;;;5.50;1.70;;;;;;;21.78;44.18;101087.91;5130793;27;20443;-69
2023/06/13 08:28:53;;;;;;;6.30;2.07;;;;;;;21.83;45.34;101097.84;5130360;27;20894;-69
2023/06/13 08:31:23;;;;;;;7.00;2.10;;;;;;;21.81;44.85;101084.41;5130635;27;20477;-70
2023/06/13 08:33:50;;;;;;;7.77;2.20;;;;;;;21.82;43.00;101080.47;5130405;27;20889;-69
2023/06/13 08:36:18;;;;;;;7.03;2.20;;;;;;;21.85;44.68;101082.53;5130502;27;20450;-69
2023/06/13 08:38:45;;;;;;;5.30;1.87;;;;;;;21.89;44.28;101091.66;5130417;27;20450;-69
2023/06/13 08:41:11;;;;;;;8.23;2.50;;;;;;;21.98;44.69;101087.88;5130396;27;20529;-69
2023/06/13 08:43:39;;;;;;;5.40;2.00;;;;;;;22.01;45.20;101087.94;5151952;27;20440;-70
2023/06/13 08:46:05;;;;;;;6.00;2.23;;;;;;;22.04;44.33;101092.72;5157618;27;20490;-69
2023/06/13 08:48:32;;;;;;;5.10;1.33;;;;;;;22.09;43.49;101091.59;5157547;27;20438;-70
2023/06/13 08:51:00;;;;;;;6.87;2.20;;;;;;;22.23;43.11;101091.91;5157414;27;20494;-69
2023/06/13 08:53:32;;;;;;;7.80;2.00;;;;;;;22.36;43.95;101089.78;5157703;27;20477;-69
2023/06/13 08:56:02;;;;;;;5.20;1.70;;;;;;;22.48;43.46;101086.78;5157414;27;20454;-69
2023/06/13 08:58:35;;;;;;;5.30;1.40;;;;;;;22.55;43.63;101088.88;5157711;27;20442;-69
2023/06/13 09:01:03;;;;;;;6.03;1.90;;;;;;;22.51;40.87;101096.31;5157626;27;20422;-69
2023/06/13 09:03:31;;;;;;;6.17;2.03;;;;;;;22.51;40.53;101090.78;5157431;27;20525;-71
2023/06/13 09:06:00;;;;;;;5.77;1.97;;;;;;;22.59;40.02;101095.25;5157433;27;20444;-71
2023/06/13 09:08:30;;;;;;;5.57;1.67;;;;;;;22.68;41.37;101095.81;5157140;27;20446;-69
2023/06/13 09:10:57;;;;;;;6.03;2.30;;;;;;;22.76;41.01;101096.72;5157343;27;20442;-69
2023/06/13 09:13:25;;;;;;;8.47;1.80;;;;;;;22.85;40.98;101089.75;5157357;27;20516;-68
2023/06/13 09:15:51;;;;;;;5.00;1.50;;;;;;;22.91;40.97;101091.03;5157222;27;20540;-69
2023/06/13 09:18:20;;;;;;;6.00;1.87;;;;;;;23.02;41.00;101098.66;5157230;27;20433;-69
2023/06/13 09:20:47;;;;;;;6.00;1.70;;;;;;;23.10;39.69;101103.13;5156932;27;20445;-69
2023/06/13 09:23:16;;;;;;;6.80;2.00;;;;;;;23.14;39.54;101098.47;5156831;27;20429;-68
2023/06/13 09:25:46;;;;;;;4.70;1.20;;;;;;;23.16;40.35;101104.41;5157023;27;20465;-69
2023/06/13 09:28:28;;;;;;;6.67;1.83;;;;;;;23.23;40.06;101112.00;5157365;27;20552;-69
2023/06/13 09:30:56;;;;;;;6.60;1.70;;;;;;;23.22;39.61;101105.69;5153649;27;20446;-69
2023/06/13 09:33:23;;;;;;;5.10;1.30;;;;;;;23.26;40.71;101101.00;5156612;27;21028;-68
2023/06/13 09:35:51;;;;;;;5.40;1.30;;;;;;;23.30;41.05;101103.81;5156858;27;20460;-68
2023/06/13 09:38:23;;;;;;;10.60;1.80;;;;;;;23.40;40.46;101094.84;5156592;27;20446;-68
2023/06/13 09:40:52;;;;;;;5.67;1.63;;;;;;;23.46;40.35;101090.56;5156966;27;20838;-68
2023/06/13 09:43:19;;;;;;;6.00;2.00;;;;;;;23.59;40.95;101094.69;5156367;27;20846;-69
2023/06/13 09:45:48;;;;;;;6.10;1.93;;;;;;;23.67;41.22;101101.13;5156680;27;20835;-68
2023/06/13 09:48:15;;;;;;;5.47;1.63;;;;;;;23.78;41.32;101096.53;5156690;27;20530;-69
2023/06/13 09:50:43;;;;;;;6.17;2.23;;;;;;;23.79;39.69;101100.88;5156686;27;20853;-69
2023/06/13 09:53:10;;;;;;;7.73;2.00;;;;;;;23.84;40.76;101103.28;5156188;27;20485;-68
2023/06/13 09:55:37;;;;;;;5.77;1.73;;;;;;;23.89;39.94;101089.13;5155417;27;20454;-69
2023/06/13 09:58:05;;;;;;;5.17;1.73;;;;;;;23.98;40.84;101094.34;5156271;27;20438;-68
2023/06/13 10:00:32;;;;;;;5.90;1.60;;;;;;;23.99;40.19;101097.91;5156449;27;20862;-68
2023/06/13 10:02:59;;;;;;;5.10;1.63;;;;;;;24.04;40.00;101090.06;5156286;27;20434;-68
2023/06/13 10:05:26;;;;;;;5.53;1.60;;;;;;;24.13;39.59;101096.09;5156296;27;20508;-68
2023/06/13 10:07:53;;;;;;;5.47;2.00;;;;;;;24.22;39.71;101081.16;5156012;27;20493;-68
2023/06/13 10:10:20;;;;;;;4.90;1.47;;;;;;;24.31;39.50;101081.63;5156248;27;20532;-68
2023/06/13 10:12:52;;;;;;;6.00;1.70;;;;;;;24.38;40.11;101079.72;5156115;27;20470;-68
2023/06/13 10:15:28;;;;;;;6.00;2.03;;;;;;;24.45;38.85;101092.03;5156114;27;20498;-68
2023/06/13 10:17:58;;;;;;;6.30;2.00;;;;;;;24.47;38.51;101084.13;5155780;27;20934;-68
2023/06/13 10:20:27;;;;;;;6.80;1.63;;;;;;;24.48;37.49;101083.78;5155711;27;20945;-68
2023/06/13 10:22:54;;;;;;;5.43;1.57;;;;;;;24.40;36.71;101088.44;5155918;27;20442;-68
2023/06/13 10:25:26;;;;;;;7.90;2.07;;;;;;;24.50;37.95;101081.41;5155855;27;20493;-68
2023/06/13 10:27:56;;;;;;;8.40;1.63;;;;;;;24.48;36.12;101083.78;5155940;27;20440;-69
2023/06/13 10:30:44;;;;;;;4.83;1.20;;;;;;;24.53;36.60;101068.75;5156107;27;20530;-68
2023/06/13 10:33:52;;;;;;;5.10;1.47;;;;;;;24.64;35.85;101075.16;5155415;27;20556;-68
2023/06/13 10:36:24;;;;;;;4.90;1.10;;;;;;;24.66;35.84;101078.34;5152983;27;20951;-69
2023/06/13 10:39:10;;;;;;;5.70;1.40;;;;;;;24.71;34.52;101080.75;5155725;27;20467;-68
2023/06/13 10:41:58;;;;;;;5.03;1.33;;;;;;;24.83;35.15;101065.78;5155666;27;20510;-68
2023/06/13 10:44:32;;;;;;;5.30;1.60;;;;;;;24.82;34.38;101053.09;5155179;27;20564;-68
2023/06/13 10:47:00;;;;;;;9.30;1.80;;;;;;;24.88;34.76;101073.72;5155507;27;20456;-69
2023/06/13 10:49:36;;;;;;;5.90;1.70;;;;;;;25.07;34.69;101058.78;5155475;27;20438;-68
2023/06/13 10:52:03;;;;;;;5.80;1.37;;;;;;;25.31;34.17;101063.69;5155438;27;20410;-68
2023/06/13 10:54:30;;;;;;;5.30;1.60;;;;;;;25.53;35.75;101069.31;5154890;27;20520;-68
2023/06/13 10:57:01;;;;;;;4.60;1.03;;;;;;;25.66;34.57;101062.22;5154995;27;20467;-69
2023/06/13 10:59:34;;;;;;;8.17;2.20;;;;;;;25.83;33.46;101061.47;5154992;27;20426;-69
2023/06/13 11:02:03;;;;;;;4.87;1.60;;;;;;;25.99;35.31;101063.91;5155333;27;20430;-68
2023/06/13 11:04:30;;;;;;;5.07;1.30;;;;;;;26.01;32.78;101069.06;5155155;27;20489;-68
2023/06/13 11:07:28;;;;;;;4.80;1.33;;;;;;;26.19;33.74;101067.06;5154925;27;20434;-69
2023/06/13 11:10:13;;;;;;;5.60;1.57;;;;;;;26.38;33.32;101063.88;5155266;27;20865;-68
2023/06/13 11:12:42;;;;;;;6.00;1.53;;;;;;;26.34;32.91;101060.34;5155094;27;20512;-68
2023/06/13 11:15:21;;;;;;;12.50;2.03;;;;;;;26.53;33.27;101059.16;5154910;27;20567;-68
2023/06/13 11:18:25;;;;;;;5.70;1.40;;;;;;;26.32;31.56;101062.72;5155104;27;20422;-69
2023/06/13 11:20:55;;;;;;;5.13;1.27;;;;;;;26.21;31.67;101061.13;5154716;27;20438;-68
2023/06/13 11:23:24;;;;;;;4.53;1.00;;;;;;;26.41;31.76;101062.31;5154979;27;20430;-68
2023/06/13 11:25:51;;;;;;;5.53;1.77;;;;;;;26.79;32.15;101060.72;5154580;27;21012;-69
2023/06/13 11:28:19;;;;;;;5.57;1.40;;;;;;;26.82;32.76;101059.88;5154844;27;20477;-69
2023/06/13 11:30:47;;;;;;;10.60;1.60;;;;;;;26.85;35.06;101052.75;5154869;27;20483;-68
2023/06/13 11:33:14;;;;;;;6.60;1.60;;;;;;;26.87;34.02;101056.72;5154788;27;20446;-68
2023/06/13 11:35:50;;;;;;;5.60;1.30;;;;;;;26.99;35.07;101065.81;5154856;27;20496;-68
2023/06/13 11:38:22;;;;;;;5.80;1.70;;;;;;;26.91;34.08;101060.25;5154550;27;20428;-69
2023/06/13 11:40:53;;;;;;;5.10;1.60;;;;;;;27.00;34.96;101056.25;5154798;27;20464;-68
2023/06/13 11:43:20;;;;;;;5.97;1.60;;;;;;;27.24;34.57;101061.00;5154290;27;20540;-68